sensor_id;sensor_type;location;lat;lon;timestamp;P1;durP1;ratioP1;P2;durP2;ratioP2
28988;SDS011;16089;59.952;10.818;2023-10-13T00:00:55;12.68;;;1.48;;
28988;SDS011;16089;59.952;10.818;2023-10-13T00:03:22;5.55;;;0.85;;
28988;SDS011;16089;59.952;10.818;2023-10-13T00:05:52;4.82;;;0.80;;
28988;SDS011;16089;59.952;10.818;2023-10-13T00:08:25;7.32;;;1.40;;
28988;SDS011;16089;59.952;10.818;2023-10-13T00:10:54;7.80;;;0.80;;
28988;SDS011;16089;59.952;10.818;2023-10-13T00:13:25;7.20;;;0.93;;
28988;SDS011;16089;59.952;10.818;2023-10-13T00:15:52;4.65;;;0.60;;
28988;SDS011;16089;59.952;10.818;2023-10-13T00:18:23;4.38;;;0.90;;
28988;SDS011;16089;59.952;10.818;2023-10-13T00:20:53;6.40;;;0.88;;
28988;SDS011;16089;59.952;10.818;2023-10-13T00:23:21;6.65;;;0.80;;
28988;SDS011;16089;59.952;10.818;2023-10-13T00:25:48;4.55;;;0.70;;
28988;SDS011;16089;59.952;10.818;2023-10-13T00:28:22;9.13;;;1.00;;
28988;SDS011;16089;59.952;10.818;2023-10-13T00:30:49;7.72;;;1.23;;
28988;SDS011;16089;59.952;10.818;2023-10-13T00:33:18;6.55;;;0.85;;
28988;SDS011;16089;59.952;10.818;2023-10-13T00:35:45;4.22;;;0.77;;
28988;SDS011;16089;59.952;10.818;2023-10-13T00:38:13;7.22;;;1.00;;
28988;SDS011;16089;59.952;10.818;2023-10-13T00:40:42;7.45;;;1.45;;
28988;SDS011;16089;59.952;10.818;2023-10-13T00:43:16;5.65;;;0.70;;
28988;SDS011;16089;59.952;10.818;2023-10-13T00:46:00;5.43;;;0.70;;
28988;SDS011;16089;59.952;10.818;2023-10-13T00:48:33;6.18;;;0.80;;
28988;SDS011;16089;59.952;10.818;2023-10-13T00:51:00;5.18;;;1.05;;
28988;SDS011;16089;59.952;10.818;2023-10-13T00:53:29;8.23;;;0.82;;
28988;SDS011;16089;59.952;10.818;2023-10-13T00:55:57;5.72;;;1.05;;
28988;SDS011;16089;59.952;10.818;2023-10-13T00:58:31;4.13;;;0.60;;
28988;SDS011;16089;59.952;10.818;2023-10-13T01:00:57;3.60;;;0.57;;
28988;SDS011;16089;59.952;10.818;2023-10-13T01:06:08;5.28;;;0.73;;
28988;SDS011;16089;59.952;10.818;2023-10-13T01:08:38;6.05;;;0.82;;
28988;SDS011;16089;59.952;10.818;2023-10-13T01:11:09;7.47;;;0.90;;
28988;SDS011;16089;59.952;10.818;2023-10-13T01:13:35;7.25;;;0.80;;
28988;SDS011;16089;59.952;10.818;2023-10-13T01:16:02;8.95;;;1.00;;
28988;SDS011;16089;59.952;10.818;2023-10-13T01:18:27;6.35;;;0.80;;
28988;SDS011;16089;59.952;10.818;2023-10-13T01:20:54;5.22;;;0.45;;
28988;SDS011;16089;59.952;10.818;2023-10-13T01:23:25;7.22;;;0.70;;
28988;SDS011;16089;59.952;10.818;2023-10-13T01:25:53;8.65;;;0.90;;
28988;SDS011;16089;59.952;10.818;2023-10-13T01:28:19;5.75;;;1.00;;
28988;SDS011;16089;59.952;10.818;2023-10-13T01:30:47;9.57;;;0.90;;
28988;SDS011;16089;59.952;10.818;2023-10-13T01:33:15;7.47;;;0.90;;
28988;SDS011;16089;59.952;10.818;2023-10-13T01:35:41;6.43;;;0.85;;
28988;SDS011;16089;59.952;10.818;2023-10-13T01:38:12;8.45;;;1.15;;
28988;SDS011;16089;59.952;10.818;2023-10-13T01:40:39;7.18;;;0.80;;
28988;SDS011;16089;59.952;10.818;2023-10-13T01:43:05;7.20;;;0.80;;
28988;SDS011;16089;59.952;10.818;2023-10-13T01:45:35;4.18;;;0.90;;
28988;SDS011;16089;59.952;10.818;2023-10-13T01:48:01;4.82;;;0.80;;
28988;SDS011;16089;59.952;10.818;2023-10-13T01:50:29;5.82;;;1.13;;
28988;SDS011;16089;59.952;10.818;2023-10-13T01:52:55;5.57;;;1.05;;
28988;SDS011;16089;59.952;10.818;2023-10-13T01:55:35;4.07;;;0.70;;
28988;SDS011;16089;59.952;10.818;2023-10-13T01:58:06;6.35;;;0.82;;
28988;SDS011;16089;59.952;10.818;2023-10-13T02:00:39;7.50;;;0.90;;
28988;SDS011;16089;59.952;10.818;2023-10-13T02:03:07;9.63;;;0.80;;
28988;SDS011;16089;59.952;10.818;2023-10-13T02:05:40;6.35;;;0.98;;
28988;SDS011;16089;59.952;10.818;2023-10-13T02:08:09;4.60;;;1.00;;
28988;SDS011;16089;59.952;10.818;2023-10-13T02:10:42;3.10;;;0.75;;
28988;SDS011;16089;59.952;10.818;2023-10-13T02:13:11;7.13;;;1.17;;
28988;SDS011;16089;59.952;10.818;2023-10-13T02:15:43;8.30;;;1.10;;
28988;SDS011;16089;59.952;10.818;2023-10-13T02:18:09;4.88;;;0.85;;
28988;SDS011;16089;59.952;10.818;2023-10-13T02:20:36;3.05;;;0.70;;
28988;SDS011;16089;59.952;10.818;2023-10-13T02:23:08;9.93;;;1.20;;
28988;SDS011;16089;59.952;10.818;2023-10-13T02:25:35;4.13;;;0.60;;
28988;SDS011;16089;59.952;10.818;2023-10-13T02:28:07;6.75;;;0.95;;
28988;SDS011;16089;59.952;10.818;2023-10-13T02:30:40;5.88;;;0.80;;
28988;SDS011;16089;59.952;10.818;2023-10-13T02:33:10;6.93;;;1.02;;
28988;SDS011;16089;59.952;10.818;2023-10-13T02:35:37;4.63;;;0.75;;
28988;SDS011;16089;59.952;10.818;2023-10-13T02:38:06;5.05;;;0.90;;
28988;SDS011;16089;59.952;10.818;2023-10-13T02:40:36;7.72;;;1.00;;
28988;SDS011;16089;59.952;10.818;2023-10-13T02:43:02;7.60;;;0.88;;
28988;SDS011;16089;59.952;10.818;2023-10-13T02:45:29;4.20;;;0.80;;
28988;SDS011;16089;59.952;10.818;2023-10-13T02:47:56;4.72;;;0.70;;
28988;SDS011;16089;59.952;10.818;2023-10-13T02:50:39;5.32;;;0.80;;
28988;SDS011;16089;59.952;10.818;2023-10-13T02:53:08;7.45;;;0.90;;
28988;SDS011;16089;59.952;10.818;2023-10-13T02:55:37;3.47;;;0.70;;
28988;SDS011;16089;59.952;10.818;2023-10-13T02:58:04;8.25;;;0.90;;
28988;SDS011;16089;59.952;10.818;2023-10-13T03:00:30;7.68;;;0.70;;
28988;SDS011;16089;59.952;10.818;2023-10-13T03:02:58;6.75;;;0.70;;
28988;SDS011;16089;59.952;10.818;2023-10-13T03:05:23;6.82;;;0.80;;
28988;SDS011;16089;59.952;10.818;2023-10-13T03:07:54;6.28;;;0.93;;
28988;SDS011;16089;59.952;10.818;2023-10-13T03:10:20;4.13;;;0.80;;
28988;SDS011;16089;59.952;10.818;2023-10-13T03:12:53;5.22;;;0.80;;
28988;SDS011;16089;59.952;10.818;2023-10-13T03:15:19;4.78;;;0.70;;
28988;SDS011;16089;59.952;10.818;2023-10-13T03:17:47;7.85;;;1.17;;
28988;SDS011;16089;59.952;10.818;2023-10-13T03:20:15;5.53;;;0.70;;
28988;SDS011;16089;59.952;10.818;2023-10-13T03:22:47;8.15;;;0.88;;
28988;SDS011;16089;59.952;10.818;2023-10-13T03:25:17;6.07;;;0.70;;
28988;SDS011;16089;59.952;10.818;2023-10-13T03:27:48;6.68;;;1.60;;
28988;SDS011;16089;59.952;10.818;2023-10-13T03:30:26;4.32;;;0.73;;
28988;SDS011;16089;59.952;10.818;2023-10-13T03:33:00;7.32;;;0.90;;
28988;SDS011;16089;59.952;10.818;2023-10-13T03:35:32;7.20;;;0.85;;
28988;SDS011;16089;59.952;10.818;2023-10-13T03:38:03;7.45;;;1.10;;
28988;SDS011;16089;59.952;10.818;2023-10-13T03:40:36;5.63;;;0.60;;
28988;SDS011;16089;59.952;10.818;2023-10-13T03:43:03;5.70;;;1.05;;
28988;SDS011;16089;59.952;10.818;2023-10-13T03:45:30;4.07;;;0.95;;
28988;SDS011;16089;59.952;10.818;2023-10-13T03:48:04;6.60;;;0.90;;
28988;SDS011;16089;59.952;10.818;2023-10-13T03:50:35;5.40;;;0.80;;
28988;SDS011;16089;59.952;10.818;2023-10-13T03:53:01;4.82;;;0.70;;
28988;SDS011;16089;59.952;10.818;2023-10-13T03:55:31;4.72;;;0.75;;
28988;SDS011;16089;59.952;10.818;2023-10-13T03:58:00;7.10;;;1.23;;
28988;SDS011;16089;59.952;10.818;2023-10-13T04:00:29;9.00;;;1.40;;
28988;SDS011;16089;59.952;10.818;2023-10-13T04:02:56;8.93;;;0.98;;
28988;SDS011;16089;59.952;10.818;2023-10-13T04:05:35;6.68;;;1.33;;
28988;SDS011;16089;59.952;10.818;2023-10-13T04:08:05;8.40;;;1.00;;
28988;SDS011;16089;59.952;10.818;2023-10-13T04:10:48;8.38;;;1.13;;
28988;SDS011;16089;59.952;10.818;2023-10-13T04:13:32;12.07;;;1.27;;
28988;SDS011;16089;59.952;10.818;2023-10-13T04:16:16;10.77;;;0.90;;
28988;SDS011;16089;59.952;10.818;2023-10-13T04:18:56;10.48;;;1.45;;
28988;SDS011;16089;59.952;10.818;2023-10-13T04:21:34;5.00;;;0.80;;
28988;SDS011;16089;59.952;10.818;2023-10-13T04:24:20;6.28;;;0.88;;
28988;SDS011;16089;59.952;10.818;2023-10-13T04:27:02;11.45;;;1.20;;
28988;SDS011;16089;59.952;10.818;2023-10-13T04:29:46;8.23;;;0.95;;
28988;SDS011;16089;59.952;10.818;2023-10-13T04:32:17;6.57;;;0.80;;
28988;SDS011;16089;59.952;10.818;2023-10-13T04:34:53;8.50;;;1.05;;
28988;SDS011;16089;59.952;10.818;2023-10-13T04:37:24;9.70;;;1.20;;
28988;SDS011;16089;59.952;10.818;2023-10-13T04:39:54;7.90;;;1.05;;
28988;SDS011;16089;59.952;10.818;2023-10-13T04:42:25;5.38;;;0.85;;
28988;SDS011;16089;59.952;10.818;2023-10-13T04:45:04;4.95;;;1.00;;
28988;SDS011;16089;59.952;10.818;2023-10-13T04:47:41;8.52;;;0.73;;
28988;SDS011;16089;59.952;10.818;2023-10-13T04:50:22;8.85;;;1.15;;
28988;SDS011;16089;59.952;10.818;2023-10-13T04:52:56;9.18;;;1.08;;
28988;SDS011;16089;59.952;10.818;2023-10-13T04:55:28;9.80;;;1.20;;
28988;SDS011;16089;59.952;10.818;2023-10-13T04:58:24;6.60;;;1.17;;
28988;SDS011;16089;59.952;10.818;2023-10-13T05:01:11;12.10;;;0.90;;
28988;SDS011;16089;59.952;10.818;2023-10-13T05:04:03;6.55;;;0.88;;
28988;SDS011;16089;59.952;10.818;2023-10-13T05:06:46;6.22;;;1.30;;
28988;SDS011;16089;59.952;10.818;2023-10-13T05:09:31;12.32;;;1.30;;
28988;SDS011;16089;59.952;10.818;2023-10-13T05:12:15;6.75;;;1.38;;
28988;SDS011;16089;59.952;10.818;2023-10-13T05:14:59;7.22;;;0.90;;
28988;SDS011;16089;59.952;10.818;2023-10-13T05:17:43;6.85;;;1.15;;
28988;SDS011;16089;59.952;10.818;2023-10-13T05:20:27;9.85;;;1.13;;
28988;SDS011;16089;59.952;10.818;2023-10-13T05:23:11;9.40;;;1.30;;
28988;SDS011;16089;59.952;10.818;2023-10-13T05:25:59;10.05;;;1.20;;
28988;SDS011;16089;59.952;10.818;2023-10-13T05:28:43;9.20;;;1.40;;
28988;SDS011;16089;59.952;10.818;2023-10-13T05:31:27;8.45;;;1.08;;
28988;SDS011;16089;59.952;10.818;2023-10-13T05:34:11;10.85;;;1.85;;
28988;SDS011;16089;59.952;10.818;2023-10-13T05:36:55;9.57;;;1.00;;
28988;SDS011;16089;59.952;10.818;2023-10-13T05:39:39;13.27;;;1.58;;
28988;SDS011;16089;59.952;10.818;2023-10-13T05:42:24;8.10;;;1.15;;
28988;SDS011;16089;59.952;10.818;2023-10-13T05:45:08;10.73;;;1.33;;
28988;SDS011;16089;59.952;10.818;2023-10-13T05:48:01;10.23;;;1.52;;
28988;SDS011;16089;59.952;10.818;2023-10-13T05:50:36;11.43;;;1.17;;
28988;SDS011;16089;59.952;10.818;2023-10-13T05:56:26;6.80;;;1.30;;
28988;SDS011;16089;59.952;10.818;2023-10-13T05:59:10;9.60;;;1.63;;
28988;SDS011;16089;59.952;10.818;2023-10-13T06:01:54;6.25;;;1.20;;
28988;SDS011;16089;59.952;10.818;2023-10-13T06:04:39;9.40;;;1.48;;
28988;SDS011;16089;59.952;10.818;2023-10-13T06:07:23;14.65;;;1.83;;
28988;SDS011;16089;59.952;10.818;2023-10-13T06:10:07;12.15;;;1.95;;
28988;SDS011;16089;59.952;10.818;2023-10-13T06:12:51;16.70;;;1.83;;
28988;SDS011;16089;59.952;10.818;2023-10-13T06:15:35;7.32;;;1.40;;
28988;SDS011;16089;59.952;10.818;2023-10-13T06:18:25;13.88;;;1.95;;
28988;SDS011;16089;59.952;10.818;2023-10-13T06:21:10;12.00;;;2.17;;
28988;SDS011;16089;59.952;10.818;2023-10-13T06:23:54;17.95;;;2.10;;
28988;SDS011;16089;59.952;10.818;2023-10-13T06:26:38;13.63;;;2.00;;
28988;SDS011;16089;59.952;10.818;2023-10-13T06:29:30;16.48;;;2.28;;
28988;SDS011;16089;59.952;10.818;2023-10-13T06:31:57;11.18;;;1.95;;
28988;SDS011;16089;59.952;10.818;2023-10-13T06:34:23;14.70;;;2.72;;
28988;SDS011;16089;59.952;10.818;2023-10-13T06:37:04;14.25;;;2.10;;
28988;SDS011;16089;59.952;10.818;2023-10-13T06:39:47;13.07;;;1.95;;
28988;SDS011;16089;59.952;10.818;2023-10-13T06:42:13;12.18;;;2.40;;
28988;SDS011;16089;59.952;10.818;2023-10-13T06:44:41;14.57;;;2.35;;
28988;SDS011;16089;59.952;10.818;2023-10-13T06:47:10;11.15;;;1.67;;
28988;SDS011;16089;59.952;10.818;2023-10-13T06:49:36;13.18;;;2.10;;
28988;SDS011;16089;59.952;10.818;2023-10-13T06:52:05;13.63;;;2.08;;
28988;SDS011;16089;59.952;10.818;2023-10-13T06:54:32;13.82;;;1.75;;
28988;SDS011;16089;59.952;10.818;2023-10-13T06:57:00;13.43;;;1.70;;
28988;SDS011;16089;59.952;10.818;2023-10-13T06:59:28;11.20;;;1.80;;
28988;SDS011;16089;59.952;10.818;2023-10-13T07:01:57;11.25;;;1.92;;
28988;SDS011;16089;59.952;10.818;2023-10-13T07:04:29;10.82;;;1.92;;
28988;SDS011;16089;59.952;10.818;2023-10-13T07:06:55;14.35;;;1.80;;
28988;SDS011;16089;59.952;10.818;2023-10-13T07:09:24;9.35;;;1.90;;
28988;SDS011;16089;59.952;10.818;2023-10-13T07:12:06;13.23;;;2.08;;
28988;SDS011;16089;59.952;10.818;2023-10-13T07:14:45;11.23;;;1.60;;
28988;SDS011;16089;59.952;10.818;2023-10-13T07:19:48;14.93;;;1.98;;
28988;SDS011;16089;59.952;10.818;2023-10-13T07:22:18;17.27;;;2.05;;
28988;SDS011;16089;59.952;10.818;2023-10-13T07:24:47;16.83;;;2.17;;
28988;SDS011;16089;59.952;10.818;2023-10-13T07:27:14;12.93;;;2.10;;
28988;SDS011;16089;59.952;10.818;2023-10-13T07:29:48;12.80;;;2.08;;
28988;SDS011;16089;59.952;10.818;2023-10-13T07:32:20;15.20;;;2.90;;
28988;SDS011;16089;59.952;10.818;2023-10-13T07:34:51;19.83;;;2.50;;
28988;SDS011;16089;59.952;10.818;2023-10-13T07:37:20;17.67;;;2.72;;
28988;SDS011;16089;59.952;10.818;2023-10-13T07:39:51;17.65;;;3.33;;
28988;SDS011;16089;59.952;10.818;2023-10-13T07:42:18;11.38;;;2.15;;
28988;SDS011;16089;59.952;10.818;2023-10-13T07:44:45;19.60;;;3.28;;
28988;SDS011;16089;59.952;10.818;2023-10-13T07:47:11;19.67;;;2.75;;
28988;SDS011;16089;59.952;10.818;2023-10-13T07:49:39;18.13;;;2.67;;
28988;SDS011;16089;59.952;10.818;2023-10-13T07:52:07;24.95;;;2.47;;
28988;SDS011;16089;59.952;10.818;2023-10-13T07:55:02;23.55;;;2.67;;
28988;SDS011;16089;59.952;10.818;2023-10-13T07:57:37;15.10;;;2.83;;
28988;SDS011;16089;59.952;10.818;2023-10-13T08:00:18;15.45;;;2.50;;
28988;SDS011;16089;59.952;10.818;2023-10-13T08:02:55;19.55;;;3.10;;
28988;SDS011;16089;59.952;10.818;2023-10-13T08:05:33;15.82;;;2.90;;
28988;SDS011;16089;59.952;10.818;2023-10-13T08:08:21;23.75;;;3.03;;
28988;SDS011;16089;59.952;10.818;2023-10-13T08:10:48;19.02;;;2.72;;
28988;SDS011;16089;59.952;10.818;2023-10-13T08:13:17;22.90;;;3.10;;
28988;SDS011;16089;59.952;10.818;2023-10-13T08:15:46;19.58;;;2.78;;
28988;SDS011;16089;59.952;10.818;2023-10-13T08:18:13;16.95;;;2.28;;
28988;SDS011;16089;59.952;10.818;2023-10-13T08:20:45;18.45;;;2.38;;
28988;SDS011;16089;59.952;10.818;2023-10-13T08:23:11;14.60;;;2.60;;
28988;SDS011;16089;59.952;10.818;2023-10-13T08:25:41;19.20;;;2.42;;
28988;SDS011;16089;59.952;10.818;2023-10-13T08:28:34;13.30;;;2.00;;
28988;SDS011;16089;59.952;10.818;2023-10-13T08:31:19;14.38;;;2.30;;
28988;SDS011;16089;59.952;10.818;2023-10-13T08:33:47;19.70;;;2.88;;
28988;SDS011;16089;59.952;10.818;2023-10-13T08:36:14;18.90;;;3.00;;
28988;SDS011;16089;59.952;10.818;2023-10-13T08:39:03;14.32;;;2.28;;
28988;SDS011;16089;59.952;10.818;2023-10-13T08:41:48;19.23;;;3.28;;
28988;SDS011;16089;59.952;10.818;2023-10-13T08:44:25;17.80;;;2.83;;
28988;SDS011;16089;59.952;10.818;2023-10-13T08:46:58;13.75;;;2.38;;
28988;SDS011;16089;59.952;10.818;2023-10-13T08:49:32;13.73;;;2.35;;
28988;SDS011;16089;59.952;10.818;2023-10-13T08:52:04;19.35;;;2.40;;
28988;SDS011;16089;59.952;10.818;2023-10-13T08:54:50;20.55;;;2.28;;
28988;SDS011;16089;59.952;10.818;2023-10-13T08:57:29;13.20;;;2.03;;
28988;SDS011;16089;59.952;10.818;2023-10-13T09:00:00;15.18;;;2.13;;
28988;SDS011;16089;59.952;10.818;2023-10-13T09:02:40;15.52;;;2.10;;
28988;SDS011;16089;59.952;10.818;2023-10-13T09:05:30;10.32;;;1.88;;
28988;SDS011;16089;59.952;10.818;2023-10-13T09:08:24;16.15;;;2.20;;
28988;SDS011;16089;59.952;10.818;2023-10-13T09:10:59;16.58;;;2.35;;
28988;SDS011;16089;59.952;10.818;2023-10-13T09:13:36;17.30;;;2.55;;
28988;SDS011;16089;59.952;10.818;2023-10-13T09:16:11;10.77;;;2.05;;
28988;SDS011;16089;59.952;10.818;2023-10-13T09:18:42;13.73;;;2.22;;
28988;SDS011;16089;59.952;10.818;2023-10-13T09:21:11;10.65;;;1.67;;
28988;SDS011;16089;59.952;10.818;2023-10-13T09:24:08;12.50;;;2.05;;
28988;SDS011;16089;59.952;10.818;2023-10-13T09:26:55;15.48;;;2.47;;
28988;SDS011;16089;59.952;10.818;2023-10-13T09:29:22;16.20;;;1.83;;
28988;SDS011;16089;59.952;10.818;2023-10-13T09:31:58;12.68;;;2.45;;
28988;SDS011;16089;59.952;10.818;2023-10-13T09:34:25;14.77;;;2.75;;
28988;SDS011;16089;59.952;10.818;2023-10-13T09:36:55;19.08;;;2.50;;
28988;SDS011;16089;59.952;10.818;2023-10-13T09:39:23;16.65;;;2.90;;
28988;SDS011;16089;59.952;10.818;2023-10-13T09:41:54;14.05;;;2.42;;
28988;SDS011;16089;59.952;10.818;2023-10-13T09:44:21;13.48;;;2.35;;
28988;SDS011;16089;59.952;10.818;2023-10-13T09:46:49;10.50;;;2.13;;
28988;SDS011;16089;59.952;10.818;2023-10-13T09:49:16;9.80;;;2.00;;
28988;SDS011;16089;59.952;10.818;2023-10-13T09:51:59;15.70;;;2.22;;
28988;SDS011;16089;59.952;10.818;2023-10-13T09:54:29;15.02;;;2.47;;
28988;SDS011;16089;59.952;10.818;2023-10-13T09:56:57;19.63;;;2.33;;
28988;SDS011;16089;59.952;10.818;2023-10-13T09:59:27;21.27;;;2.70;;
28988;SDS011;16089;59.952;10.818;2023-10-13T10:02:01;17.15;;;2.28;;
28988;SDS011;16089;59.952;10.818;2023-10-13T10:04:33;15.63;;;2.83;;
28988;SDS011;16089;59.952;10.818;2023-10-13T10:07:06;18.05;;;2.53;;
28988;SDS011;16089;59.952;10.818;2023-10-13T10:09:33;17.00;;;2.88;;
28988;SDS011;16089;59.952;10.818;2023-10-13T10:12:10;19.05;;;2.47;;
28988;SDS011;16089;59.952;10.818;2023-10-13T10:14:47;20.48;;;2.65;;
28988;SDS011;16089;59.952;10.818;2023-10-13T10:17:21;18.77;;;3.15;;
28988;SDS011;16089;59.952;10.818;2023-10-13T10:19:48;12.88;;;2.65;;
28988;SDS011;16089;59.952;10.818;2023-10-13T10:22:24;20.08;;;3.13;;
28988;SDS011;16089;59.952;10.818;2023-10-13T10:24:55;18.83;;;3.33;;
28988;SDS011;16089;59.952;10.818;2023-10-13T10:27:23;21.20;;;3.00;;
28988;SDS011;16089;59.952;10.818;2023-10-13T10:29:52;20.48;;;2.75;;
28988;SDS011;16089;59.952;10.818;2023-10-13T10:32:20;17.77;;;2.70;;
28988;SDS011;16089;59.952;10.818;2023-10-13T10:34:46;21.33;;;2.70;;
28988;SDS011;16089;59.952;10.818;2023-10-13T10:37:13;16.42;;;2.28;;
28988;SDS011;16089;59.952;10.818;2023-10-13T10:39:41;16.05;;;3.35;;
28988;SDS011;16089;59.952;10.818;2023-10-13T10:42:11;25.60;;;3.40;;
28988;SDS011;16089;59.952;10.818;2023-10-13T10:44:42;19.45;;;2.90;;
28988;SDS011;16089;59.952;10.818;2023-10-13T10:47:09;23.98;;;3.33;;
28988;SDS011;16089;59.952;10.818;2023-10-13T10:49:38;29.35;;;3.70;;
28988;SDS011;16089;59.952;10.818;2023-10-13T10:52:06;27.58;;;3.20;;
28988;SDS011;16089;59.952;10.818;2023-10-13T10:54:34;19.30;;;2.60;;
28988;SDS011;16089;59.952;10.818;2023-10-13T10:57:00;23.30;;;2.75;;
28988;SDS011;16089;59.952;10.818;2023-10-13T10:59:41;21.38;;;2.92;;
28988;SDS011;16089;59.952;10.818;2023-10-13T11:02:07;25.63;;;2.83;;
28988;SDS011;16089;59.952;10.818;2023-10-13T11:04:34;18.75;;;3.20;;
28988;SDS011;16089;59.952;10.818;2023-10-13T11:07:06;25.40;;;3.00;;
28988;SDS011;16089;59.952;10.818;2023-10-13T11:09:34;21.92;;;3.00;;
28988;SDS011;16089;59.952;10.818;2023-10-13T11:12:09;25.58;;;3.58;;
28988;SDS011;16089;59.952;10.818;2023-10-13T11:14:40;24.10;;;3.15;;
28988;SDS011;16089;59.952;10.818;2023-10-13T11:17:06;23.05;;;2.80;;
28988;SDS011;16089;59.952;10.818;2023-10-13T11:19:39;23.23;;;3.42;;
28988;SDS011;16089;59.952;10.818;2023-10-13T11:22:11;30.27;;;3.60;;
28988;SDS011;16089;59.952;10.818;2023-10-13T11:24:54;26.13;;;3.90;;
28988;SDS011;16089;59.952;10.818;2023-10-13T11:27:20;22.98;;;3.47;;
28988;SDS011;16089;59.952;10.818;2023-10-13T11:30:02;18.67;;;2.97;;
28988;SDS011;16089;59.952;10.818;2023-10-13T11:32:37;27.98;;;3.60;;
28988;SDS011;16089;59.952;10.818;2023-10-13T11:35:07;20.42;;;3.22;;
28988;SDS011;16089;59.952;10.818;2023-10-13T11:37:46;22.85;;;3.83;;
28988;SDS011;16089;59.952;10.818;2023-10-13T11:40:21;20.77;;;2.88;;
28988;SDS011;16089;59.952;10.818;2023-10-13T11:43:08;24.58;;;3.53;;
28988;SDS011;16089;59.952;10.818;2023-10-13T11:45:39;20.10;;;3.47;;
28988;SDS011;16089;59.952;10.818;2023-10-13T11:48:19;26.42;;;3.55;;
28988;SDS011;16089;59.952;10.818;2023-10-13T11:50:58;21.40;;;2.92;;
28988;SDS011;16089;59.952;10.818;2023-10-13T11:53:26;17.80;;;3.00;;
28988;SDS011;16089;59.952;10.818;2023-10-13T11:55:54;25.33;;;3.25;;
28988;SDS011;16089;59.952;10.818;2023-10-13T11:58:20;21.98;;;2.83;;
28988;SDS011;16089;59.952;10.818;2023-10-13T12:00:46;26.55;;;3.22;;
28988;SDS011;16089;59.952;10.818;2023-10-13T12:03:26;19.65;;;2.83;;
28988;SDS011;16089;59.952;10.818;2023-10-13T12:06:10;20.88;;;2.83;;
28988;SDS011;16089;59.952;10.818;2023-10-13T12:08:59;23.83;;;3.15;;
28988;SDS011;16089;59.952;10.818;2023-10-13T12:11:45;19.20;;;3.53;;
28988;SDS011;16089;59.952;10.818;2023-10-13T12:14:11;27.70;;;3.42;;
28988;SDS011;16089;59.952;10.818;2023-10-13T12:16:42;20.83;;;3.00;;
28988;SDS011;16089;59.952;10.818;2023-10-13T12:19:08;21.35;;;2.97;;
28988;SDS011;16089;59.952;10.818;2023-10-13T12:21:36;21.40;;;2.88;;
28988;SDS011;16089;59.952;10.818;2023-10-13T12:24:05;22.58;;;3.05;;
28988;SDS011;16089;59.952;10.818;2023-10-13T12:26:37;25.20;;;3.58;;
28988;SDS011;16089;59.952;10.818;2023-10-13T12:29:06;26.67;;;3.50;;
28988;SDS011;16089;59.952;10.818;2023-10-13T12:31:42;22.85;;;3.75;;
28988;SDS011;16089;59.952;10.818;2023-10-13T12:34:16;18.10;;;2.80;;
28988;SDS011;16089;59.952;10.818;2023-10-13T12:36:56;27.42;;;3.17;;
28988;SDS011;16089;59.952;10.818;2023-10-13T12:39:32;20.90;;;3.92;;
28988;SDS011;16089;59.952;10.818;2023-10-13T12:42:16;29.95;;;3.35;;
28988;SDS011;16089;59.952;10.818;2023-10-13T12:45:00;24.35;;;3.72;;
28988;SDS011;16089;59.952;10.818;2023-10-13T12:47:44;24.90;;;3.80;;
28988;SDS011;16089;59.952;10.818;2023-10-13T12:50:28;20.77;;;3.25;;
28988;SDS011;16089;59.952;10.818;2023-10-13T12:53:08;17.63;;;2.67;;
28988;SDS011;16089;59.952;10.818;2023-10-13T12:55:41;25.27;;;3.33;;
28988;SDS011;16089;59.952;10.818;2023-10-13T12:58:07;17.38;;;3.00;;
28988;SDS011;16089;59.952;10.818;2023-10-13T13:00:33;17.73;;;2.90;;
28988;SDS011;16089;59.952;10.818;2023-10-13T13:03:00;19.52;;;2.45;;
28988;SDS011;16089;59.952;10.818;2023-10-13T13:05:36;13.77;;;2.90;;
28988;SDS011;16089;59.952;10.818;2023-10-13T13:08:09;20.30;;;2.75;;
28988;SDS011;16089;59.952;10.818;2023-10-13T13:10:37;26.45;;;3.38;;
28988;SDS011;16089;59.952;10.818;2023-10-13T13:13:05;21.52;;;2.90;;
28988;SDS011;16089;59.952;10.818;2023-10-13T13:15:32;19.15;;;2.78;;
28988;SDS011;16089;59.952;10.818;2023-10-13T13:17:58;19.63;;;2.60;;
28988;SDS011;16089;59.952;10.818;2023-10-13T13:20:35;18.48;;;3.22;;
28988;SDS011;16089;59.952;10.818;2023-10-13T13:23:04;18.60;;;3.20;;
28988;SDS011;16089;59.952;10.818;2023-10-13T13:25:31;19.30;;;2.90;;
28988;SDS011;16089;59.952;10.818;2023-10-13T13:27:58;21.67;;;2.92;;
28988;SDS011;16089;59.952;10.818;2023-10-13T13:30:31;17.80;;;2.78;;
28988;SDS011;16089;59.952;10.818;2023-10-13T13:32:59;23.20;;;3.35;;
28988;SDS011;16089;59.952;10.818;2023-10-13T13:35:29;26.67;;;2.67;;
28988;SDS011;16089;59.952;10.818;2023-10-13T13:37:59;17.70;;;2.75;;
28988;SDS011;16089;59.952;10.818;2023-10-13T13:40:34;19.08;;;2.33;;
28988;SDS011;16089;59.952;10.818;2023-10-13T13:43:01;23.15;;;2.95;;
28988;SDS011;16089;59.952;10.818;2023-10-13T13:45:27;22.10;;;2.88;;
28988;SDS011;16089;59.952;10.818;2023-10-13T13:47:55;27.15;;;3.22;;
28988;SDS011;16089;59.952;10.818;2023-10-13T13:50:22;21.05;;;2.60;;
28988;SDS011;16089;59.952;10.818;2023-10-13T13:52:52;22.48;;;2.60;;
28988;SDS011;16089;59.952;10.818;2023-10-13T13:55:21;21.38;;;2.78;;
28988;SDS011;16089;59.952;10.818;2023-10-13T13:57:47;22.88;;;2.90;;
28988;SDS011;16089;59.952;10.818;2023-10-13T14:00:15;16.17;;;2.67;;
28988;SDS011;16089;59.952;10.818;2023-10-13T14:02:45;20.95;;;2.88;;
28988;SDS011;16089;59.952;10.818;2023-10-13T14:05:14;20.83;;;3.50;;
28988;SDS011;16089;59.952;10.818;2023-10-13T14:07:41;23.52;;;2.83;;
28988;SDS011;16089;59.952;10.818;2023-10-13T14:10:08;22.15;;;4.03;;
28988;SDS011;16089;59.952;10.818;2023-10-13T14:12:43;17.13;;;2.90;;
28988;SDS011;16089;59.952;10.818;2023-10-13T14:15:09;18.35;;;3.13;;
28988;SDS011;16089;59.952;10.818;2023-10-13T14:17:45;13.65;;;2.50;;
28988;SDS011;16089;59.952;10.818;2023-10-13T14:20:11;17.05;;;2.72;;
28988;SDS011;16089;59.952;10.818;2023-10-13T14:22:45;18.08;;;2.75;;
28988;SDS011;16089;59.952;10.818;2023-10-13T14:25:13;21.52;;;3.47;;
28988;SDS011;16089;59.952;10.818;2023-10-13T14:27:40;19.88;;;2.88;;
28988;SDS011;16089;59.952;10.818;2023-10-13T14:30:07;20.52;;;2.90;;
28988;SDS011;16089;59.952;10.818;2023-10-13T14:32:33;14.85;;;2.40;;
28988;SDS011;16089;59.952;10.818;2023-10-13T14:35:05;19.08;;;3.22;;
28988;SDS011;16089;59.952;10.818;2023-10-13T14:37:39;19.07;;;3.00;;
28988;SDS011;16089;59.952;10.818;2023-10-13T14:40:09;16.92;;;3.30;;
28988;SDS011;16089;59.952;10.818;2023-10-13T14:42:38;20.58;;;3.17;;
28988;SDS011;16089;59.952;10.818;2023-10-13T14:45:05;17.70;;;3.53;;
28988;SDS011;16089;59.952;10.818;2023-10-13T14:47:37;18.13;;;2.85;;
28988;SDS011;16089;59.952;10.818;2023-10-13T14:50:04;20.33;;;3.08;;
28988;SDS011;16089;59.952;10.818;2023-10-13T14:52:31;16.00;;;2.30;;
28988;SDS011;16089;59.952;10.818;2023-10-13T14:54:58;19.77;;;2.92;;
28988;SDS011;16089;59.952;10.818;2023-10-13T14:57:25;13.95;;;2.50;;
28988;SDS011;16089;59.952;10.818;2023-10-13T14:59:52;23.38;;;3.88;;
28988;SDS011;16089;59.952;10.818;2023-10-13T15:02:18;18.38;;;2.75;;
28988;SDS011;16089;59.952;10.818;2023-10-13T15:04:46;25.48;;;3.20;;
28988;SDS011;16089;59.952;10.818;2023-10-13T15:07:13;15.95;;;3.70;;